Bewolking Meer informatie Parkstad Weather Satellite


Neerslagradar Meer informatie Parkstad Rain Snow Radar


Onweersbuien Meer informatie Parkstad Lighntning


24/7 Weercamera Meer informatie Parkstad Weathercam


Natuurbrandrisico
CBI







Het weer levert geen direct gevaar op in Parkstad.    Er zijn geen waarschuwingen afgegeven voor Parkstad (045)

METAR rapporten vliegvelden

   
EHBK - Beek Nederland
Gewijzigd: 03-06-2020 04:55
Gedeeltelijk bewolkt  
Gedeeltelijk bewolkt  
   Wind: ZW 9.3 km/h
Wind: ZW 9.3 km/h
Temperatuur: 13°C
Dauwpunt: 8°C
Vochtigheid: 72%
Barometer: 1009 hPa
Satelliet beelden: Gedeeltelijk bewolkt
Zicht: meer dan 10 km
Bewolking: Gedeeltelijk bewolkt
EHBK 030255Z AUTO 23005KT 9999 NSC 13/08 Q1009
EHBK - Maastricht Nederland
Gewijzigd: 03-06-2020 04:55
Gedeeltelijk bewolkt  
Gedeeltelijk bewolkt  
   Wind: ZW 9.3 km/h
Wind: ZW 9.3 km/h
Temperatuur: 13°C
Dauwpunt: 8°C
Vochtigheid: 72%
Barometer: 1009 hPa
Satelliet beelden: Gedeeltelijk bewolkt
Zicht: meer dan 10 km
Bewolking: Gedeeltelijk bewolkt
EHBK 030255Z AUTO 23005KT 9999 NSC 13/08 Q1009
EBLG - Liège België
Gewijzigd: 03-06-2020 04:50
Helder  
Helder  
   Wind: WZW 5.6 km/h
Wind: WZW 5.6 km/h
Temperatuur: 14°C
Dauwpunt: 8°C
Vochtigheid: 67%
Barometer: 1009 hPa
Zicht: meer dan 10 km
Bewolking: Helder
EBLG 030250Z 25003KT CAVOK 14/08 Q1009 NOSIG
EDDK - Köln/Bonn Duitsland
Gewijzigd: 03-06-2020 04:50
Helder  
Helder  
   Wind: varieert 1.9 km/h
Wind: varieert 1.9 km/h
Temperatuur: 14°C
Dauwpunt: 10°C
Vochtigheid: 77%
Barometer: 1008 hPa
Zicht: meer dan 10 km
Bewolking: Helder
EDDK 030250Z VRB01KT CAVOK 14/10 Q1008 NOSIG
EDDL - Düsseldorf Duitsland
Gewijzigd: 03-06-2020 04:50
Helder  
Helder  
   Wind: varieert 1.9 km/h
Wind: varieert 1.9 km/h
Temperatuur: 14°C
Dauwpunt: 10°C
Vochtigheid: 77%
Barometer: 1008 hPa
Zicht: meer dan 10 km
Bewolking: Helder
EDDL 030250Z VRB01KT CAVOK 14/10 Q1008 NOSIG
EHEH - Eindhoven Nederland
Gewijzigd: 03-06-2020 04:55
Nevel, Bewolking  
Nevel, Bewolking  
   Wind: ZW 3.7 km/h
Wind: ZW 3.7 km/h
Temperatuur: 11°C
Dauwpunt: 10°C
Vochtigheid: 94%
Barometer: 1008 hPa
Satelliet beelden: Bewolking
Zicht: 7 km
Bewolking: Bewolking 5486 m
EHEH 030255Z AUTO 22002KT 7000 BR OVC180 11/10 Q1008 WHT
ELLX - Luxemburg Luxemburg
Gewijzigd: 03-06-2020 04:50
Helder  
Helder  
   Wind: NNO 9.3 km/h
Wind: NNO 9.3 km/h
Temperatuur: 17°C
Dauwpunt: 6°C
Vochtigheid: 49%
Barometer: 1009 hPa
Satelliet beelden: Helder
Zicht: meer dan 10 km
Bewolking: Helder
ELLX 030250Z AUTO 03005KT 9999 NCD 17/06 Q1009 NOSIG
EGLL - London England
Gewijzigd: 03-06-2020 04:50
Helder  
Helder  
   Wind: varieert 1.9 km/h
Wind: varieert 1.9 km/h
Temperatuur: 15°C
Dauwpunt: 7°C
Vochtigheid: 59%
Barometer: 1010 hPa
Satelliet beelden: Helder
Zicht: meer dan 10 km
Bewolking: Helder
EGLL 030250Z AUTO VRB01KT 9999 NCD 15/07 Q1010
EBAW - Antwerpen België
Gewijzigd: 03-06-2020 04:50
Nevel, Helder  
Nevel, Helder  
   Wind: Westen 9.3 km/h
Wind: Westen 9.3 km/h
Temperatuur: 14°C
Dauwpunt: 12°C
Vochtigheid: 88%
Barometer: 1009 hPa
Satelliet beelden: Helder
Zicht: 4 km
Bewolking: Helder
EBAW 030250Z AUTO 26005KT 3600 BR NCD 14/12 Q1009
EBOS - Oostende België
Gewijzigd: 03-06-2020 04:50
Helder  
Helder  
   Wind: NW 11.1 km/h
Wind: NW 11.1 km/h
Temperatuur: 13°C
Dauwpunt: 11°C
Vochtigheid: 88%
Barometer: 1010 hPa
Zicht: meer dan 10 km
Bewolking: Helder
EBOS 030250Z 31006KT CAVOK 13/11 Q1010 NOSIG
LEAL - La Nucia Spanje
Gewijzigd: 03-06-2020 05:10
Grotendeels bewolkt  
Grotendeels bewolkt  
   Wind: Westen 7.4 km/h
Wind: Westen 7.4 km/h
Temperatuur: 17°C
Dauwpunt: 15°C
Vochtigheid: 88%
Barometer: 1011 hPa
Satelliet beelden: Grotendeels bewolkt
Zicht: meer dan 10 km
Bewolking: Grotendeels bewolkt 31 m
LEAL 030310Z 27004KT 9999 BKN001 17/15 Q1011 TEMPO 0500 FG VV002
TNCA - Oranjestad Aruba
Gewijzigd: 03-06-2020 05:00
Licht bewolkt  
Licht bewolkt  
   Wind: Oosten 29.6 km/h
Wind: Oosten 29.6 km/h
Temperatuur: 27°C
Gevoelstemperatuur: 29°C
Dauwpunt: 22°C
Vochtigheid: 74%
Barometer: 1013 hPa
Satelliet beelden: Licht bewolkt
Zicht: meer dan 10 km
Bewolking: Licht bewolkt 579 m
TNCA 030300Z 09016KT 9999 FEW019 27/22 Q1013 NOSIG
TNCC - Willemstad Curacao
Gewijzigd: 03-06-2020 05:00
Helder  
Helder  
   Wind: Oosten 24.1 km/h
Wind: Oosten 24.1 km/h
Temperatuur: 27°C
Gevoelstemperatuur: 29°C
Dauwpunt: 22°C
Vochtigheid: 74%
Barometer: 1014 hPa
Zicht: meer dan 10 km
Bewolking: Helder
TNCC 030300Z 09013KT CAVOK 27/22 Q1014 NOSIG=
MTPP - Port au Prince Haitië
Gewijzigd: 03-06-2020 04:59
  
  
   Wind: Oosten 20.4 km/h
Wind: Oosten 20.4 km/h
Temperatuur: 29°C
Gevoelstemperatuur: 32°C
Dauwpunt: 22°C
Vochtigheid: 66%
Barometer: 1015 hPa
Zicht: 9 km
MTPP 030259Z AUTO 10011KT 9000 ////// 29/22 Q1015 A2999 NOSIG
ENVA - Trondheim Noorwegen
Gewijzigd: 03-06-2020 04:50
Bewolking  
Bewolking  
   Wind: NNO 9.3 km/h
Wind: NNO 9.3 km/h
Temperatuur: 11°C
Dauwpunt: 8°C
Vochtigheid: 82%
Barometer: 1015 hPa
Satelliet beelden: Bewolking
Zicht: meer dan 10 km
Bewolking: Bewolking 671 m
ENVA 030250Z AUTO 03005KT 010V080 9999 OVC022/// 11/08 Q1015 RMK WIND 670FT 05007KT
ENBO - Bodø Noorwegen
Gewijzigd: 03-06-2020 04:50
Grotendeels bewolkt  
Grotendeels bewolkt  
   Wind: NW 13 km/h
Wind: NW 13 km/h
Temperatuur: 7°C
Voelt als: 4°C
Dauwpunt: 3°C
Vochtigheid: 76%
Barometer: 1018 hPa
Satelliet beelden: Grotendeels bewolkt
Zicht: meer dan 10 km
Bewolking: Gedeeltelijk bewolkt 549 m,
Grotendeels bewolkt 762 m
ENBO 030250Z 31007KT 9999 SCT018 BKN025 07/03 Q1018
ETNG - Geilenkirchen Duitsland
Gewijzigd: 03-06-2020 04:50
Helder  
Helder  
   Wind: ZW 7.4 km/h
Wind: ZW 7.4 km/h
Temperatuur: 15°C
Dauwpunt: 8°C
Vochtigheid: 63%
Barometer: 1008 hPa
Zicht: meer dan 10 km
Bewolking: Helder
ETNG 030250Z 22004KT CAVOK 15/08 Q1008
 

Script ontwikkeld door  Saratoga-weather.org Aangepast voor de template door  Weerstation Leuven

U vindt ons ook hier:

Het Weer Aktueel

WOW Nederland KNMI

Vereniging voor Weerkunde en Klimatologie

UK Met Office Weather Observation Website (WOW)

WeatherCloud

Weather Underground

Awekas

Weatherlink IP

HAMweather, WeatherForYou, PWS Weather

Citizen Weather Observer Program (CWOP)

Apparatuur in gebruik:

Hardwareleverancier
Weerhuisje

Weerstation
Vantage Pro2+ UV

Weercomputer's
alix3d2 & wl330n

Weerprogramma's
Smartbedded

Satelliet NOAA's
WRX137 & KX137

Satelliet Eumetsat
Ayecka SR1 & Triax

Bliksemdetectie
Boltek StormTracker

Webleverancier
F-Service

Weerhuisje

Vantage Pro2+ UV

alix3d2 & wl330n

Smartbedded

WRX137 & KX137

Ayecka SR1 & Triax

Boltek StormTracker

F-Service